createdAt,value
2023-11-14T00:03:38.521Z,99318.24
2023-11-14T00:08:38.425Z,99332.01000000001
2023-11-14T00:13:38.158Z,99307.87
2023-11-14T00:18:38.558Z,99314.95
2023-11-14T00:23:38.110Z,99279.22
2023-11-14T00:28:38.161Z,99257.54
2023-11-14T00:33:38.451Z,99231.0
2023-11-14T00:38:38.217Z,99205.44
2023-11-14T00:43:38.071Z,99200.05
2023-11-14T00:48:38.538Z,99201.73
2023-11-14T00:53:38.114Z,99236.67
2023-11-14T00:58:38.417Z,99278.44
2023-11-14T01:03:38.416Z,99277.71
2023-11-14T01:08:38.035Z,99183.0
2023-11-14T01:13:39.818Z,99087.22
2023-11-14T01:18:38.613Z,98995.01000000001
2023-11-14T01:23:38.914Z,98912.47
2023-11-14T01:28:38.513Z,98884.67000000001
2023-11-14T01:33:39.848Z,98884.74
2023-11-14T01:38:38.111Z,98879.6
2023-11-14T01:43:42.679Z,98888.28
2023-11-14T01:48:38.636Z,98929.49
2023-11-14T01:53:39.407Z,98928.77
2023-11-14T01:58:38.269Z,98914.36
2023-11-14T02:03:39.453Z,98912.05
2023-11-14T02:08:38.182Z,98936.11
2023-11-14T02:13:43.026Z,98924.22
2023-11-14T02:18:38.106Z,98908.83
2023-11-14T02:23:40.874Z,98906.53
2023-11-14T02:28:38.043Z,98899.67
2023-11-14T02:33:38.335Z,98891.16
2023-11-14T02:38:37.985Z,98881.31
2023-11-14T02:43:38.011Z,98876.62
2023-11-14T02:48:38.492Z,98873.67
2023-11-14T02:53:37.934Z,98875.72
2023-11-14T02:58:38.846Z,98870.7
2023-11-14T03:03:43.492Z,98864.5
2023-11-14T03:08:38.021Z,98856.94
2023-11-14T03:13:37.975Z,98838.17
2023-11-14T03:18:38.407Z,98850.97
2023-11-14T03:23:38.030Z,98852.55
2023-11-14T03:28:37.966Z,98828.47
2023-11-14T03:33:38.153Z,98838.59
2023-11-14T03:38:37.895Z,98829.90999999999
2023-11-14T03:43:37.971Z,98826.81
2023-11-14T03:48:38.108Z,98830.58
2023-11-14T03:53:38.544Z,98816.13
2023-11-14T03:58:39.304Z,98814.51
2023-11-14T04:03:38.303Z,98792.31999999999
2023-11-14T04:08:38.691Z,98804.63
2023-11-14T04:13:38.204Z,98797.74
2023-11-14T04:18:38.469Z,98799.94
2023-11-14T04:23:37.854Z,98799.23999999999
2023-11-14T04:28:38.043Z,98801.06
2023-11-14T04:33:38.291Z,98796.13
2023-11-14T04:38:37.903Z,98791.21
2023-11-14T04:43:37.979Z,98799.3
2023-11-14T04:48:38.022Z,98804.57
2023-11-14T04:53:38.339Z,98799.11
2023-11-14T04:58:37.903Z,98807.42
2023-11-14T05:03:38.543Z,98803.49
2023-11-14T05:08:37.867Z,98806.39
2023-11-14T05:13:39.919Z,98818.58
2023-11-14T05:18:37.998Z,98827.34
2023-11-14T05:23:38.696Z,98833.42
2023-11-14T05:28:38.035Z,98835.97
2023-11-14T05:33:39.775Z,98834.47
2023-11-14T05:38:37.885Z,98831.12999999999
2023-11-14T05:43:37.944Z,98840.7
2023-11-14T05:48:38.269Z,98854.15000000001
2023-11-14T05:53:40.058Z,98859.78
2023-11-14T05:58:38.109Z,98868.09
2023-11-14T06:03:38.268Z,98884.41
2023-11-14T06:08:37.889Z,98889.43000000001
2023-11-14T06:13:37.974Z,98890.88
2023-11-14T06:18:38.338Z,98889.06
2023-11-14T06:23:37.761Z,98896.91
2023-11-14T06:28:38.647Z,98909.27
2023-11-14T06:33:38.125Z,98909.34
2023-11-14T06:38:38.143Z,98919.44
2023-11-14T06:43:38.662Z,98917.7
2023-11-14T06:48:38.339Z,98920.4
2023-11-14T06:53:37.830Z,98927.51
2023-11-14T06:58:40.402Z,98929.01000000001
2023-11-14T07:03:38.709Z,98925.64
2023-11-14T07:08:37.828Z,98933.59
2023-11-14T07:13:38.145Z,98939.06
2023-11-14T07:18:38.059Z,98934.43
2023-11-14T07:23:38.348Z,98936.8
2023-11-14T07:28:37.904Z,98943.26999999999
2023-11-14T07:33:37.952Z,98940.09
2023-11-14T07:38:38.044Z,98942.16
2023-11-14T07:43:37.841Z,98948.39
2023-11-14T07:48:38.373Z,98946.56999999999
2023-11-14T07:53:37.776Z,98944.23000000001
2023-11-14T07:58:37.759Z,98946.86
2023-11-14T08:03:38.467Z,98947.16
2023-11-14T08:08:37.896Z,98946.17
2023-11-14T08:13:38.242Z,98954.92
2023-11-14T08:18:38.568Z,98958.25
2023-11-14T08:23:40.989Z,98958.75
2023-11-14T08:28:39.816Z,98958.42
2023-11-14T08:33:37.896Z,98964.36
2023-11-14T08:38:37.855Z,98970.95000000001
2023-11-14T08:43:37.714Z,98970.83
2023-11-14T08:48:37.872Z,98976.95
2023-11-14T08:53:39.180Z,98979.52
2023-11-14T08:58:37.702Z,98974.65999999999
2023-11-14T09:03:38.313Z,98987.23999999999
2023-11-14T09:08:38.015Z,98985.91
2023-11-14T09:13:37.693Z,98991.67
2023-11-14T09:18:39.131Z,98984.56
2023-11-14T09:23:38.307Z,98980.39
2023-11-14T09:28:37.737Z,98976.81
2023-11-14T09:33:37.907Z,98968.75
2023-11-14T09:38:39.079Z,98977.08
2023-11-14T09:43:38.019Z,98968.48
2023-11-14T09:48:37.752Z,98969.19
2023-11-14T09:53:39.286Z,98965.41
2023-11-14T09:58:37.970Z,98965.28
2023-11-14T10:03:38.026Z,98959.12
2023-11-14T10:08:45.801Z,98961.92
2023-11-14T10:13:38.511Z,98948.94
2023-11-14T10:18:37.982Z,98961.53
2023-11-14T10:23:40.513Z,98973.81
2023-11-14T10:28:51.715Z,98953.64
2023-11-14T10:33:39.783Z,98938.11
2023-11-14T10:38:38.041Z,98939.56
2023-11-14T10:43:37.780Z,98947.33
2023-11-14T10:48:37.974Z,98950.31
2023-11-14T10:53:38.602Z,98949.34
2023-11-14T10:58:39.250Z,98949.87999999999
2023-11-14T11:03:39.485Z,98958.92
2023-11-14T11:08:37.648Z,98956.14
2023-11-14T11:13:40.349Z,98956.94
2023-11-14T11:18:40.643Z,98957.79
2023-11-14T11:23:59.823Z,98948.55
2023-11-14T11:28:43.141Z,98945.0
2023-11-14T11:33:39.997Z,98940.43000000001
2023-11-14T11:38:52.007Z,98950.97
2023-11-14T11:43:42.080Z,98949.75
2023-11-14T11:48:37.669Z,98953.78
2023-11-14T11:53:40.074Z,98940.59999999999
2023-11-14T11:58:46.498Z,98945.43
2023-11-14T12:03:38.071Z,98946.17
2023-11-14T12:08:38.178Z,98946.44
2023-11-14T12:13:37.604Z,98941.04999999999
2023-11-14T12:18:38.249Z,98937.97
2023-11-14T12:23:38.012Z,98944.56
2023-11-14T12:28:38.993Z,98942.40999999999
2023-11-14T12:33:42.849Z,98939.70000000001
2023-11-14T12:38:39.227Z,98932.45
2023-11-14T12:43:38.339Z,98922.29999999999
2023-11-14T12:48:37.646Z,98918.18
2023-11-14T12:53:37.849Z,98929.96
2023-11-14T12:58:37.461Z,98928.33
2023-11-14T13:03:37.578Z,98924.78
2023-11-14T13:08:40.177Z,98928.35
2023-11-14T13:13:37.498Z,98922.77
2023-11-14T13:18:37.663Z,98919.06
2023-11-14T13:23:38.871Z,98924.89
2023-11-14T13:28:38.134Z,98936.58
2023-11-14T13:33:37.632Z,98926.65
2023-11-14T13:38:37.851Z,98919.31
2023-11-14T13:43:38.605Z,98915.0
2023-11-14T13:48:37.534Z,98924.31
2023-11-14T13:53:39.655Z,98920.65
2023-11-14T13:58:37.514Z,98916.58
2023-11-14T14:03:39.029Z,98905.64
2023-11-14T14:08:40.098Z,98896.26
2023-11-14T14:13:39.159Z,98905.7
2023-11-14T14:18:38.536Z,98901.9
2023-11-14T14:23:37.755Z,98898.73999999999
2023-11-14T14:28:41.301Z,98901.17
2023-11-14T14:33:38.106Z,98908.45000000001
2023-11-14T14:38:37.804Z,98901.12000000001
2023-11-14T14:43:39.293Z,98899.49
2023-11-14T14:48:37.540Z,98910.27
2023-11-14T14:53:38.006Z,98906.62
2023-11-14T14:58:37.432Z,98904.45999999999
2023-11-14T15:03:38.202Z,98907.73000000001
2023-11-14T15:08:38.023Z,98902.4
2023-11-14T15:13:37.552Z,98904.38
2023-11-14T15:18:37.953Z,98898.20999999999
2023-11-14T15:23:37.870Z,98902.45
2023-11-14T15:28:38.709Z,98908.76
2023-11-14T15:33:37.497Z,98905.40999999999
2023-11-14T15:38:37.657Z,98910.88
2023-11-14T15:43:38.536Z,98906.76
2023-11-14T15:48:38.314Z,98915.63
2023-11-14T15:53:37.773Z,98914.86
2023-11-14T15:58:38.202Z,98918.47
2023-11-14T16:03:37.540Z,98915.68
2023-11-14T16:08:37.704Z,98911.08
2023-11-14T16:13:37.378Z,98912.42
2023-11-14T16:18:37.589Z,98904.08
2023-11-14T16:23:37.924Z,98907.43
2023-11-14T16:28:37.647Z,98911.8
2023-11-14T16:33:37.500Z,98913.67
2023-11-14T16:38:37.563Z,98906.97
2023-11-14T16:43:37.729Z,98914.81
2023-11-14T16:48:37.366Z,98906.58
2023-11-14T16:53:39.822Z,98912.13
2023-11-14T16:58:37.459Z,98921.53
2023-11-14T17:03:37.447Z,98919.38
2023-11-14T17:08:37.723Z,98911.15
2023-11-14T17:13:38.394Z,98914.37
2023-11-14T17:18:38.283Z,98919.65
2023-11-14T17:23:39.284Z,98916.2
2023-11-14T17:28:39.824Z,98912.5
2023-11-14T17:33:39.534Z,98909.14
2023-11-14T17:38:39.674Z,98919.48
2023-11-14T17:43:37.699Z,98932.73000000001
2023-11-14T17:48:37.380Z,98938.22
2023-11-14T17:53:37.401Z,98929.54999999999
2023-11-14T17:58:37.810Z,98932.19
2023-11-14T18:03:38.141Z,98928.08
2023-11-14T18:08:37.386Z,98933.17
2023-11-14T18:13:37.718Z,98924.67
2023-11-14T18:18:37.383Z,98918.78
2023-11-14T18:23:37.502Z,98916.71
2023-11-14T18:28:37.726Z,98916.13
2023-11-14T18:33:37.409Z,98906.66
2023-11-14T18:38:39.400Z,98899.63
2023-11-14T18:43:37.595Z,98899.28
2023-11-14T18:48:37.395Z,98895.29
2023-11-14T18:53:37.567Z,98896.87
2023-11-14T18:58:40.211Z,98891.16
2023-11-14T19:03:37.761Z,98885.51
2023-11-14T19:08:37.356Z,98881.34999999999
2023-11-14T19:13:37.820Z,98876.05
2023-11-14T19:18:37.405Z,98874.35
2023-11-14T19:23:43.652Z,98872.12
2023-11-14T19:28:39.662Z,98870.0
2023-11-14T19:33:37.375Z,98871.31000000001
2023-11-14T19:38:38.015Z,98870.72
2023-11-14T19:43:38.898Z,98869.25
2023-11-14T19:48:37.618Z,98856.22
2023-11-14T19:53:37.382Z,98852.17
2023-11-14T19:58:37.559Z,98859.2
2023-11-14T20:03:37.396Z,98853.98
2023-11-14T20:08:37.290Z,98856.47
2023-11-14T20:13:41.541Z,98865.94
2023-11-14T20:18:37.678Z,98867.55
2023-11-14T20:23:37.386Z,98868.89
2023-11-14T20:28:37.525Z,98862.23
2023-11-14T20:33:37.221Z,98863.62000000001
2023-11-14T20:38:37.342Z,98863.79
2023-11-14T20:43:37.881Z,98870.39
2023-11-14T20:48:37.398Z,98859.38
2023-11-14T20:53:37.261Z,98854.52
2023-11-14T20:58:37.468Z,98854.31999999999
2023-11-14T21:03:37.330Z,98856.47
2023-11-14T21:08:37.748Z,98857.03
2023-11-14T21:13:38.990Z,98861.91
2023-11-14T21:18:38.187Z,98861.04000000001
2023-11-14T21:23:39.483Z,98865.3
2023-11-14T21:28:37.457Z,98866.54999999999
2023-11-14T21:33:37.661Z,98854.6
2023-11-14T21:38:38.001Z,98862.27
2023-11-14T21:43:39.274Z,98865.66
2023-11-14T21:48:37.303Z,98869.8
2023-11-14T21:53:37.441Z,98875.04000000001
2023-11-14T21:58:37.663Z,98870.34
2023-11-14T22:03:37.189Z,98885.11
2023-11-14T22:08:37.251Z,98869.16
2023-11-14T22:13:37.521Z,98871.13
2023-11-14T22:18:39.191Z,98879.26999999999
2023-11-14T22:23:37.451Z,98872.89
2023-11-14T22:28:37.461Z,98874.84
2023-11-14T22:33:37.231Z,98879.33
2023-11-14T22:38:38.569Z,98884.91
2023-11-14T22:43:37.581Z,98883.87
2023-11-14T22:48:37.758Z,98878.12
2023-11-14T22:53:37.674Z,98865.95
2023-11-14T22:58:37.602Z,98878.59999999999
2023-11-14T23:03:37.173Z,98875.67
2023-11-14T23:08:37.888Z,98876.05
2023-11-14T23:13:37.990Z,98870.78
2023-11-14T23:18:37.785Z,98870.26
2023-11-14T23:23:37.802Z,98875.42
2023-11-14T23:28:37.640Z,98863.73
2023-11-14T23:33:37.149Z,98868.59
2023-11-14T23:38:38.447Z,98860.76000000001
2023-11-14T23:43:37.442Z,98852.34
2023-11-14T23:48:37.253Z,98847.79999999999
2023-11-14T23:53:37.682Z,98848.20999999999
2023-11-14T23:58:37.248Z,98842.61
